sensor_id;sensor_type;location;lat;lon;timestamp;temperature;humidity
67064;SHT30;58476;48.072;11.970;2023-08-30T00:02:18;24.48;53.21
67064;SHT30;58476;48.072;11.970;2023-08-30T00:04:44;24.47;53.11
67064;SHT30;58476;48.072;11.970;2023-08-30T00:07:09;24.49;53.21
67064;SHT30;58476;48.072;11.970;2023-08-30T00:09:34;24.48;53.07
67064;SHT30;58476;48.072;11.970;2023-08-30T00:12:00;24.47;53.08
67064;SHT30;58476;48.072;11.970;2023-08-30T00:14:25;24.47;53.19
67064;SHT30;58476;48.072;11.970;2023-08-30T00:16:50;24.48;53.05
67064;SHT30;58476;48.072;11.970;2023-08-30T00:19:16;24.45;52.97
67064;SHT30;58476;48.072;11.970;2023-08-30T00:21:41;24.47;53.07
67064;SHT30;58476;48.072;11.970;2023-08-30T00:24:06;24.47;52.91
67064;SHT30;58476;48.072;11.970;2023-08-30T00:26:32;24.48;52.94
67064;SHT30;58476;48.072;11.970;2023-08-30T00:28:59;24.45;52.93
67064;SHT30;58476;48.072;11.970;2023-08-30T00:31:24;24.45;52.96
67064;SHT30;58476;48.072;11.970;2023-08-30T00:33:49;24.41;53.01
67064;SHT30;58476;48.072;11.970;2023-08-30T00:36:15;24.39;53.13
67064;SHT30;58476;48.072;11.970;2023-08-30T00:38:40;24.36;53.44
67064;SHT30;58476;48.072;11.970;2023-08-30T00:41:05;24.35;53.50
67064;SHT30;58476;48.072;11.970;2023-08-30T00:43:31;24.31;53.49
67064;SHT30;58476;48.072;11.970;2023-08-30T00:45:56;24.31;53.57
67064;SHT30;58476;48.072;11.970;2023-08-30T00:48:22;24.29;53.55
67064;SHT30;58476;48.072;11.970;2023-08-30T00:50:48;24.28;53.50
67064;SHT30;58476;48.072;11.970;2023-08-30T00:53:14;24.28;53.51
67064;SHT30;58476;48.072;11.970;2023-08-30T00:55:41;24.25;53.59
67064;SHT30;58476;48.072;11.970;2023-08-30T00:58:07;24.24;53.63
67064;SHT30;58476;48.072;11.970;2023-08-30T01:00:33;24.21;53.65
67064;SHT30;58476;48.072;11.970;2023-08-30T01:02:58;24.21;53.57
67064;SHT30;58476;48.072;11.970;2023-08-30T01:05:24;24.21;53.45
67064;SHT30;58476;48.072;11.970;2023-08-30T01:07:52;24.18;53.39
67064;SHT30;58476;48.072;11.970;2023-08-30T01:10:36;24.17;53.41
67064;SHT30;58476;48.072;11.970;2023-08-30T01:13:07;24.15;53.40
67064;SHT30;58476;48.072;11.970;2023-08-30T01:15:34;24.15;53.55
67064;SHT30;58476;48.072;11.970;2023-08-30T01:18:01;24.14;53.58
67064;SHT30;58476;48.072;11.970;2023-08-30T01:20:28;24.10;53.52
67064;SHT30;58476;48.072;11.970;2023-08-30T01:22:59;24.13;53.48
67064;SHT30;58476;48.072;11.970;2023-08-30T01:25:57;24.10;53.43
67064;SHT30;58476;48.072;11.970;2023-08-30T01:28:29;24.10;53.56
67064;SHT30;58476;48.072;11.970;2023-08-30T01:30:55;24.05;53.45
67064;SHT30;58476;48.072;11.970;2023-08-30T01:33:21;24.07;53.50
67064;SHT30;58476;48.072;11.970;2023-08-30T01:35:47;24.08;53.43
67064;SHT30;58476;48.072;11.970;2023-08-30T01:38:13;24.03;53.48
67064;SHT30;58476;48.072;11.970;2023-08-30T01:40:41;24.03;53.28
67064;SHT30;58476;48.072;11.970;2023-08-30T01:43:07;24.01;53.24
67064;SHT30;58476;48.072;11.970;2023-08-30T01:45:36;24.03;53.16
67064;SHT30;58476;48.072;11.970;2023-08-30T01:48:04;24.05;53.14
67064;SHT30;58476;48.072;11.970;2023-08-30T01:50:32;24.07;53.21
67064;SHT30;58476;48.072;11.970;2023-08-30T01:52:57;24.08;53.28
67064;SHT30;58476;48.072;11.970;2023-08-30T01:55:25;24.10;53.19
67064;SHT30;58476;48.072;11.970;2023-08-30T01:57:51;24.11;53.19
67064;SHT30;58476;48.072;11.970;2023-08-30T02:00:17;24.17;53.04
67064;SHT30;58476;48.072;11.970;2023-08-30T02:02:42;24.15;52.92
67064;SHT30;58476;48.072;11.970;2023-08-30T02:05:07;24.17;52.88
67064;SHT30;58476;48.072;11.970;2023-08-30T02:07:43;24.20;52.83
67064;SHT30;58476;48.072;11.970;2023-08-30T02:10:11;24.18;52.86
67064;SHT30;58476;48.072;11.970;2023-08-30T02:12:46;24.21;52.71
67064;SHT30;58476;48.072;11.970;2023-08-30T02:15:13;24.21;52.75
67064;SHT30;58476;48.072;11.970;2023-08-30T02:17:39;24.20;52.65
67064;SHT30;58476;48.072;11.970;2023-08-30T02:20:08;24.21;52.68
67064;SHT30;58476;48.072;11.970;2023-08-30T02:22:34;24.21;52.64
67064;SHT30;58476;48.072;11.970;2023-08-30T02:24:59;24.21;52.62
67064;SHT30;58476;48.072;11.970;2023-08-30T02:27:27;24.22;52.55
67064;SHT30;58476;48.072;11.970;2023-08-30T02:29:52;24.20;52.58
67064;SHT30;58476;48.072;11.970;2023-08-30T02:32:18;24.21;52.55
67064;SHT30;58476;48.072;11.970;2023-08-30T02:34:43;24.21;52.54
67064;SHT30;58476;48.072;11.970;2023-08-30T02:37:08;24.22;52.46
67064;SHT30;58476;48.072;11.970;2023-08-30T02:39:34;24.21;52.51
67064;SHT30;58476;48.072;11.970;2023-08-30T02:41:59;24.21;52.47
67064;SHT30;58476;48.072;11.970;2023-08-30T02:44:24;24.20;52.45
67064;SHT30;58476;48.072;11.970;2023-08-30T02:46:50;24.17;52.57
67064;SHT30;58476;48.072;11.970;2023-08-30T02:49:15;24.18;52.65
67064;SHT30;58476;48.072;11.970;2023-08-30T02:51:40;24.14;52.64
67064;SHT30;58476;48.072;11.970;2023-08-30T02:54:06;24.10;52.69
67064;SHT30;58476;48.072;11.970;2023-08-30T02:56:31;24.11;52.86
67064;SHT30;58476;48.072;11.970;2023-08-30T02:58:58;24.08;52.94
67064;SHT30;58476;48.072;11.970;2023-08-30T03:01:23;24.07;52.87
67064;SHT30;58476;48.072;11.970;2023-08-30T03:03:49;24.05;52.81
67064;SHT30;58476;48.072;11.970;2023-08-30T03:06:17;24.01;52.91
67064;SHT30;58476;48.072;11.970;2023-08-30T03:08:42;24.01;52.86
67064;SHT30;58476;48.072;11.970;2023-08-30T03:11:11;24.01;53.03
67064;SHT30;58476;48.072;11.970;2023-08-30T03:13:40;24.01;52.98
67064;SHT30;58476;48.072;11.970;2023-08-30T03:16:12;23.98;53.00
67064;SHT30;58476;48.072;11.970;2023-08-30T03:18:39;23.97;52.92
67064;SHT30;58476;48.072;11.970;2023-08-30T03:21:04;23.94;53.07
67064;SHT30;58476;48.072;11.970;2023-08-30T03:23:30;23.94;52.87
67064;SHT30;58476;48.072;11.970;2023-08-30T03:25:56;23.93;52.86
67064;SHT30;58476;48.072;11.970;2023-08-30T03:28:21;23.92;53.01
67064;SHT30;58476;48.072;11.970;2023-08-30T03:30:47;23.90;52.98
67064;SHT30;58476;48.072;11.970;2023-08-30T03:33:12;23.92;53.02
67064;SHT30;58476;48.072;11.970;2023-08-30T03:35:38;23.88;53.01
67064;SHT30;58476;48.072;11.970;2023-08-30T03:38:04;23.87;52.90
67064;SHT30;58476;48.072;11.970;2023-08-30T03:40:30;23.84;52.91
67064;SHT30;58476;48.072;11.970;2023-08-30T03:42:55;23.84;53.11
67064;SHT30;58476;48.072;11.970;2023-08-30T03:45:21;23.84;53.02
67064;SHT30;58476;48.072;11.970;2023-08-30T03:47:47;23.84;53.05
67064;SHT30;58476;48.072;11.970;2023-08-30T03:50:12;23.83;52.94
67064;SHT30;58476;48.072;11.970;2023-08-30T03:52:39;23.83;53.08
67064;SHT30;58476;48.072;11.970;2023-08-30T03:55:04;23.78;53.15
67064;SHT30;58476;48.072;11.970;2023-08-30T03:57:30;23.78;52.98
67064;SHT30;58476;48.072;11.970;2023-08-30T03:59:55;23.80;53.04
67064;SHT30;58476;48.072;11.970;2023-08-30T04:02:20;23.78;52.94
67064;SHT30;58476;48.072;11.970;2023-08-30T04:04:47;23.81;53.01
67064;SHT30;58476;48.072;11.970;2023-08-30T04:07:12;23.83;52.97
67064;SHT30;58476;48.072;11.970;2023-08-30T04:09:38;23.83;52.95
67064;SHT30;58476;48.072;11.970;2023-08-30T04:12:03;23.87;52.92
67064;SHT30;58476;48.072;11.970;2023-08-30T04:14:29;23.93;52.88
67064;SHT30;58476;48.072;11.970;2023-08-30T04:16:56;23.90;52.93
67064;SHT30;58476;48.072;11.970;2023-08-30T04:19:21;23.92;52.89
67064;SHT30;58476;48.072;11.970;2023-08-30T04:21:47;23.96;52.79
67064;SHT30;58476;48.072;11.970;2023-08-30T04:24:12;23.96;52.71
67064;SHT30;58476;48.072;11.970;2023-08-30T04:26:37;23.97;52.63
67064;SHT30;58476;48.072;11.970;2023-08-30T04:29:03;23.97;52.60
67064;SHT30;58476;48.072;11.970;2023-08-30T04:31:28;23.98;52.73
67064;SHT30;58476;48.072;11.970;2023-08-30T04:33:53;23.98;52.66
67064;SHT30;58476;48.072;11.970;2023-08-30T04:36:19;24.00;52.60
67064;SHT30;58476;48.072;11.970;2023-08-30T04:38:45;23.98;52.57
67064;SHT30;58476;48.072;11.970;2023-08-30T04:41:10;24.01;52.65
67064;SHT30;58476;48.072;11.970;2023-08-30T04:43:36;24.00;52.63
67064;SHT30;58476;48.072;11.970;2023-08-30T04:46:01;24.01;52.54
67064;SHT30;58476;48.072;11.970;2023-08-30T04:48:27;24.00;52.63
67064;SHT30;58476;48.072;11.970;2023-08-30T04:51:02;24.01;52.61
67064;SHT30;58476;48.072;11.970;2023-08-30T04:53:28;24.03;52.46
67064;SHT30;58476;48.072;11.970;2023-08-30T04:55:54;24.01;52.50
67064;SHT30;58476;48.072;11.970;2023-08-30T04:58:20;24.01;52.49
67064;SHT30;58476;48.072;11.970;2023-08-30T05:00:45;24.01;52.52
67064;SHT30;58476;48.072;11.970;2023-08-30T05:03:11;24.01;52.49
67064;SHT30;58476;48.072;11.970;2023-08-30T05:05:36;23.98;52.63
67064;SHT30;58476;48.072;11.970;2023-08-30T05:08:02;24.00;52.57
67064;SHT30;58476;48.072;11.970;2023-08-30T05:10:28;23.94;52.60
67064;SHT30;58476;48.072;11.970;2023-08-30T05:12:53;23.93;52.78
67064;SHT30;58476;48.072;11.970;2023-08-30T05:15:19;23.93;52.73
67064;SHT30;58476;48.072;11.970;2023-08-30T05:17:46;23.92;52.86
67064;SHT30;58476;48.072;11.970;2023-08-30T05:20:11;23.88;52.89
67064;SHT30;58476;48.072;11.970;2023-08-30T05:22:37;23.88;52.88
67064;SHT30;58476;48.072;11.970;2023-08-30T05:25:03;23.87;53.10
67064;SHT30;58476;48.072;11.970;2023-08-30T05:27:28;23.86;53.17
67064;SHT30;58476;48.072;11.970;2023-08-30T05:29:56;23.86;53.31
67064;SHT30;58476;48.072;11.970;2023-08-30T05:32:22;23.84;53.42
67064;SHT30;58476;48.072;11.970;2023-08-30T05:35:06;23.83;53.36
67064;SHT30;58476;48.072;11.970;2023-08-30T05:37:52;23.80;53.35
67064;SHT30;58476;48.072;11.970;2023-08-30T05:40:24;23.83;53.46
67064;SHT30;58476;48.072;11.970;2023-08-30T05:42:50;23.81;53.68
67064;SHT30;58476;48.072;11.970;2023-08-30T05:45:15;23.80;53.76
67064;SHT30;58476;48.072;11.970;2023-08-30T05:47:41;23.80;53.65
67064;SHT30;58476;48.072;11.970;2023-08-30T05:50:06;23.80;53.57
67064;SHT30;58476;48.072;11.970;2023-08-30T05:52:32;23.77;53.74
67064;SHT30;58476;48.072;11.970;2023-08-30T05:54:57;23.78;53.92
67064;SHT30;58476;48.072;11.970;2023-08-30T05:57:23;23.74;54.00
67064;SHT30;58476;48.072;11.970;2023-08-30T05:59:49;23.76;54.04
67064;SHT30;58476;48.072;11.970;2023-08-30T06:02:14;23.74;54.01
67064;SHT30;58476;48.072;11.970;2023-08-30T06:04:39;23.73;53.97
67064;SHT30;58476;48.072;11.970;2023-08-30T06:07:05;23.71;53.90
67064;SHT30;58476;48.072;11.970;2023-08-30T06:09:30;23.70;54.03
67064;SHT30;58476;48.072;11.970;2023-08-30T06:11:55;23.70;53.78
67064;SHT30;58476;48.072;11.970;2023-08-30T06:14:21;23.70;53.99
67064;SHT30;58476;48.072;11.970;2023-08-30T06:16:46;23.70;54.41
67064;SHT30;58476;48.072;11.970;2023-08-30T06:19:12;23.73;54.80
67064;SHT30;58476;48.072;11.970;2023-08-30T06:21:37;23.74;54.48
67064;SHT30;58476;48.072;11.970;2023-08-30T06:24:03;23.77;54.56
67064;SHT30;58476;48.072;11.970;2023-08-30T06:26:28;23.77;54.44
67064;SHT30;58476;48.072;11.970;2023-08-30T06:28:53;23.84;54.55
67064;SHT30;58476;48.072;11.970;2023-08-30T06:31:19;23.88;54.83
67064;SHT30;58476;48.072;11.970;2023-08-30T06:33:44;23.96;55.05
67064;SHT30;58476;48.072;11.970;2023-08-30T06:36:09;23.94;55.36
67064;SHT30;58476;48.072;11.970;2023-08-30T06:38:34;24.00;55.03
67064;SHT30;58476;48.072;11.970;2023-08-30T06:41:00;24.04;55.70
67064;SHT30;58476;48.072;11.970;2023-08-30T06:43:25;24.13;55.73
67064;SHT30;58476;48.072;11.970;2023-08-30T06:45:51;24.15;55.49
67064;SHT30;58476;48.072;11.970;2023-08-30T06:48:16;24.18;55.29
67064;SHT30;58476;48.072;11.970;2023-08-30T06:50:41;24.20;55.15
67064;SHT30;58476;48.072;11.970;2023-08-30T06:53:06;24.22;55.22
67064;SHT30;58476;48.072;11.970;2023-08-30T06:55:32;24.25;55.19
67064;SHT30;58476;48.072;11.970;2023-08-30T06:57:57;24.25;55.14
67064;SHT30;58476;48.072;11.970;2023-08-30T07:00:23;24.28;54.86
67064;SHT30;58476;48.072;11.970;2023-08-30T07:02:48;24.29;54.82
67064;SHT30;58476;48.072;11.970;2023-08-30T07:05:13;24.29;54.87
67064;SHT30;58476;48.072;11.970;2023-08-30T07:07:39;24.34;54.95
67064;SHT30;58476;48.072;11.970;2023-08-30T07:10:05;24.38;54.85
67064;SHT30;58476;48.072;11.970;2023-08-30T07:12:30;24.36;55.02
67064;SHT30;58476;48.072;11.970;2023-08-30T07:14:55;24.36;55.04
67064;SHT30;58476;48.072;11.970;2023-08-30T07:17:21;24.39;55.09
67064;SHT30;58476;48.072;11.970;2023-08-30T07:19:47;24.41;55.09
67064;SHT30;58476;48.072;11.970;2023-08-30T07:22:12;24.39;55.11
67064;SHT30;58476;48.072;11.970;2023-08-30T07:24:37;24.41;55.10
67064;SHT30;58476;48.072;11.970;2023-08-30T07:27:03;24.38;55.11
67064;SHT30;58476;48.072;11.970;2023-08-30T07:29:28;24.36;54.85
67064;SHT30;58476;48.072;11.970;2023-08-30T07:31:54;24.32;55.10
67064;SHT30;58476;48.072;11.970;2023-08-30T07:34:19;24.35;54.95
67064;SHT30;58476;48.072;11.970;2023-08-30T07:36:44;24.31;54.90
67064;SHT30;58476;48.072;11.970;2023-08-30T07:39:09;24.29;54.92
67064;SHT30;58476;48.072;11.970;2023-08-30T07:41:35;24.26;54.87
67064;SHT30;58476;48.072;11.970;2023-08-30T07:44:01;24.24;55.02
67064;SHT30;58476;48.072;11.970;2023-08-30T07:46:26;24.21;55.09
67064;SHT30;58476;48.072;11.970;2023-08-30T07:48:51;24.24;55.01
67064;SHT30;58476;48.072;11.970;2023-08-30T07:51:17;24.24;55.35
67064;SHT30;58476;48.072;11.970;2023-08-30T07:53:42;24.22;55.37
67064;SHT30;58476;48.072;11.970;2023-08-30T07:56:07;24.24;55.60
67064;SHT30;58476;48.072;11.970;2023-08-30T07:58:33;24.39;55.57
67064;SHT30;58476;48.072;11.970;2023-08-30T08:00:58;24.36;55.35
67064;SHT30;58476;48.072;11.970;2023-08-30T08:03:23;24.39;55.62
67064;SHT30;58476;48.072;11.970;2023-08-30T08:05:49;24.34;56.10
67064;SHT30;58476;48.072;11.970;2023-08-30T08:08:14;24.35;55.78
67064;SHT30;58476;48.072;11.970;2023-08-30T08:10:41;24.31;55.85
67064;SHT30;58476;48.072;11.970;2023-08-30T08:13:07;24.34;56.06
67064;SHT30;58476;48.072;11.970;2023-08-30T08:15:32;24.31;55.90
67064;SHT30;58476;48.072;11.970;2023-08-30T08:17:57;24.31;55.82
67064;SHT30;58476;48.072;11.970;2023-08-30T08:20:23;24.31;55.89
67064;SHT30;58476;48.072;11.970;2023-08-30T08:22:48;24.32;55.69
67064;SHT30;58476;48.072;11.970;2023-08-30T08:25:14;24.35;55.93
67064;SHT30;58476;48.072;11.970;2023-08-30T08:27:39;24.36;55.50
67064;SHT30;58476;48.072;11.970;2023-08-30T08:30:05;24.41;55.26
67064;SHT30;58476;48.072;11.970;2023-08-30T08:32:31;24.44;55.76
67064;SHT30;58476;48.072;11.970;2023-08-30T08:34:57;24.47;55.36
67064;SHT30;58476;48.072;11.970;2023-08-30T08:37:22;24.49;55.12
67064;SHT30;58476;48.072;11.970;2023-08-30T08:39:48;24.52;55.40
67064;SHT30;58476;48.072;11.970;2023-08-30T08:42:13;24.58;55.35
67064;SHT30;58476;48.072;11.970;2023-08-30T08:44:40;24.58;55.25
67064;SHT30;58476;48.072;11.970;2023-08-30T08:47:06;24.61;54.91
67064;SHT30;58476;48.072;11.970;2023-08-30T08:49:31;24.59;55.00
67064;SHT30;58476;48.072;11.970;2023-08-30T08:51:57;24.59;54.97
67064;SHT30;58476;48.072;11.970;2023-08-30T08:54:22;24.62;55.06
67064;SHT30;58476;48.072;11.970;2023-08-30T08:56:48;24.64;54.60
67064;SHT30;58476;48.072;11.970;2023-08-30T08:59:14;24.65;55.09
67064;SHT30;58476;48.072;11.970;2023-08-30T09:01:39;24.61;54.69
67064;SHT30;58476;48.072;11.970;2023-08-30T09:04:06;24.62;55.14
67064;SHT30;58476;48.072;11.970;2023-08-30T09:06:33;24.64;54.87
67064;SHT30;58476;48.072;11.970;2023-08-30T09:08:58;24.62;54.97
67064;SHT30;58476;48.072;11.970;2023-08-30T09:11:23;24.64;55.08
67064;SHT30;58476;48.072;11.970;2023-08-30T09:13:49;24.61;54.70
67064;SHT30;58476;48.072;11.970;2023-08-30T09:16:15;24.64;54.75
67064;SHT30;58476;48.072;11.970;2023-08-30T09:18:41;24.65;54.68
67064;SHT30;58476;48.072;11.970;2023-08-30T09:21:10;24.64;54.82
67064;SHT30;58476;48.072;11.970;2023-08-30T09:23:36;24.62;54.70
67064;SHT30;58476;48.072;11.970;2023-08-30T09:26:02;24.65;54.46
67064;SHT30;58476;48.072;11.970;2023-08-30T09:28:28;24.62;54.85
67064;SHT30;58476;48.072;11.970;2023-08-30T09:30:53;24.64;54.68
67064;SHT30;58476;48.072;11.970;2023-08-30T09:33:23;24.62;54.56
67064;SHT30;58476;48.072;11.970;2023-08-30T09:35:48;24.64;54.47
67064;SHT30;58476;48.072;11.970;2023-08-30T09:38:17;24.65;54.59
67064;SHT30;58476;48.072;11.970;2023-08-30T09:40:43;24.71;54.75
67064;SHT30;58476;48.072;11.970;2023-08-30T09:43:09;24.73;54.87
67064;SHT30;58476;48.072;11.970;2023-08-30T09:45:34;24.76;54.63
67064;SHT30;58476;48.072;11.970;2023-08-30T09:48:01;24.75;54.59
67064;SHT30;58476;48.072;11.970;2023-08-30T09:50:28;24.80;54.68
67064;SHT30;58476;48.072;11.970;2023-08-30T09:52:54;24.80;54.79
67064;SHT30;58476;48.072;11.970;2023-08-30T09:55:20;24.86;54.95
67064;SHT30;58476;48.072;11.970;2023-08-30T09:57:48;24.87;55.06
67064;SHT30;58476;48.072;11.970;2023-08-30T10:00:14;24.93;55.22
67064;SHT30;58476;48.072;11.970;2023-08-30T10:02:43;24.96;55.32
67064;SHT30;58476;48.072;11.970;2023-08-30T10:05:09;25.00;55.24
67064;SHT30;58476;48.072;11.970;2023-08-30T10:07:39;25.02;55.48
67064;SHT30;58476;48.072;11.970;2023-08-30T10:10:04;25.07;55.52
67064;SHT30;58476;48.072;11.970;2023-08-30T10:12:33;25.06;55.80
67064;SHT30;58476;48.072;11.970;2023-08-30T10:14:59;25.09;55.69
67064;SHT30;58476;48.072;11.970;2023-08-30T10:17:27;25.09;55.94
67064;SHT30;58476;48.072;11.970;2023-08-30T10:19:53;25.23;55.76
67064;SHT30;58476;48.072;11.970;2023-08-30T10:22:19;25.30;56.21
67064;SHT30;58476;48.072;11.970;2023-08-30T10:24:59;25.38;55.61
67064;SHT30;58476;48.072;11.970;2023-08-30T10:27:26;25.47;55.23
67064;SHT30;58476;48.072;11.970;2023-08-30T10:29:52;25.51;55.08
67064;SHT30;58476;48.072;11.970;2023-08-30T10:32:21;25.54;54.94
67064;SHT30;58476;48.072;11.970;2023-08-30T10:34:48;25.61;54.80
67064;SHT30;58476;48.072;11.970;2023-08-30T10:37:14;25.61;54.55
67064;SHT30;58476;48.072;11.970;2023-08-30T10:39:41;25.60;54.55
67064;SHT30;58476;48.072;11.970;2023-08-30T10:44:33;25.58;54.64
67064;SHT30;58476;48.072;11.970;2023-08-30T10:47:02;25.57;54.59
67064;SHT30;58476;48.072;11.970;2023-08-30T10:49:38;25.60;54.31
67064;SHT30;58476;48.072;11.970;2023-08-30T10:52:11;25.61;54.28
67064;SHT30;58476;48.072;11.970;2023-08-30T10:54:37;25.60;54.23
67064;SHT30;58476;48.072;11.970;2023-08-30T10:57:03;25.61;54.11
67064;SHT30;58476;48.072;11.970;2023-08-30T10:59:28;25.64;53.88
67064;SHT30;58476;48.072;11.970;2023-08-30T11:01:53;25.63;53.95
67064;SHT30;58476;48.072;11.970;2023-08-30T11:04:19;25.64;53.89
67064;SHT30;58476;48.072;11.970;2023-08-30T11:06:47;25.64;53.94
67064;SHT30;58476;48.072;11.970;2023-08-30T11:09:19;25.60;54.06
67064;SHT30;58476;48.072;11.970;2023-08-30T11:11:46;25.58;54.05
67064;SHT30;58476;48.072;11.970;2023-08-30T11:14:12;25.58;53.87
67064;SHT30;58476;48.072;11.970;2023-08-30T11:16:39;25.58;53.86
67064;SHT30;58476;48.072;11.970;2023-08-30T11:19:06;25.57;53.76
67064;SHT30;58476;48.072;11.970;2023-08-30T11:21:34;25.58;53.62
67064;SHT30;58476;48.072;11.970;2023-08-30T11:24:00;25.60;53.46
67064;SHT30;58476;48.072;11.970;2023-08-30T11:26:26;25.61;53.36
67064;SHT30;58476;48.072;11.970;2023-08-30T11:28:51;25.61;53.39
67064;SHT30;58476;48.072;11.970;2023-08-30T11:31:24;25.64;53.30
67064;SHT30;58476;48.072;11.970;2023-08-30T11:33:53;25.63;53.42
67064;SHT30;58476;48.072;11.970;2023-08-30T11:36:20;25.61;53.26
67064;SHT30;58476;48.072;11.970;2023-08-30T11:38:46;25.57;53.44
67064;SHT30;58476;48.072;11.970;2023-08-30T11:41:12;25.51;53.37
67064;SHT30;58476;48.072;11.970;2023-08-30T11:43:38;25.44;53.28
67064;SHT30;58476;48.072;11.970;2023-08-30T11:46:03;25.44;53.23
67064;SHT30;58476;48.072;11.970;2023-08-30T11:48:29;25.43;53.17
67064;SHT30;58476;48.072;11.970;2023-08-30T11:50:54;25.40;53.30
67064;SHT30;58476;48.072;11.970;2023-08-30T11:53:20;25.41;53.49
67064;SHT30;58476;48.072;11.970;2023-08-30T11:55:45;25.38;53.53
67064;SHT30;58476;48.072;11.970;2023-08-30T11:58:11;25.34;53.49
67064;SHT30;58476;48.072;11.970;2023-08-30T12:00:36;25.35;53.45
67064;SHT30;58476;48.072;11.970;2023-08-30T12:03:02;25.33;53.51
67064;SHT30;58476;48.072;11.970;2023-08-30T12:05:27;25.31;53.38
67064;SHT30;58476;48.072;11.970;2023-08-30T12:07:53;25.30;53.35
67064;SHT30;58476;48.072;11.970;2023-08-30T12:10:18;25.24;53.46
67064;SHT30;58476;48.072;11.970;2023-08-30T12:12:46;25.27;53.45
67064;SHT30;58476;48.072;11.970;2023-08-30T12:15:12;25.23;53.66
67064;SHT30;58476;48.072;11.970;2023-08-30T12:17:38;25.22;53.66
67064;SHT30;58476;48.072;11.970;2023-08-30T12:20:04;25.22;53.63
67064;SHT30;58476;48.072;11.970;2023-08-30T12:22:47;25.19;53.45
67064;SHT30;58476;48.072;11.970;2023-08-30T12:25:20;25.19;53.39
67064;SHT30;58476;48.072;11.970;2023-08-30T12:27:46;25.14;52.83
67064;SHT30;58476;48.072;11.970;2023-08-30T12:30:15;25.07;52.94
67064;SHT30;58476;48.072;11.970;2023-08-30T12:32:41;25.04;51.75
67064;SHT30;58476;48.072;11.970;2023-08-30T12:35:06;24.99;52.29
67064;SHT30;58476;48.072;11.970;2023-08-30T12:37:31;24.94;52.79
67064;SHT30;58476;48.072;11.970;2023-08-30T12:39:57;24.90;51.72
67064;SHT30;58476;48.072;11.970;2023-08-30T12:42:22;24.90;51.52
67064;SHT30;58476;48.072;11.970;2023-08-30T12:44:47;24.89;51.56
67064;SHT30;58476;48.072;11.970;2023-08-30T12:47:13;24.90;51.86
67064;SHT30;58476;48.072;11.970;2023-08-30T12:49:38;24.85;51.95
67064;SHT30;58476;48.072;11.970;2023-08-30T12:52:04;24.87;51.93
67064;SHT30;58476;48.072;11.970;2023-08-30T12:54:29;24.87;51.98
67064;SHT30;58476;48.072;11.970;2023-08-30T12:56:54;24.89;51.81
67064;SHT30;58476;48.072;11.970;2023-08-30T12:59:20;24.92;51.87
67064;SHT30;58476;48.072;11.970;2023-08-30T13:01:45;24.93;51.92
67064;SHT30;58476;48.072;11.970;2023-08-30T13:04:10;24.97;52.12
67064;SHT30;58476;48.072;11.970;2023-08-30T13:06:36;25.00;52.27
67064;SHT30;58476;48.072;11.970;2023-08-30T13:09:01;25.03;52.33
67064;SHT30;58476;48.072;11.970;2023-08-30T13:11:26;25.02;52.40
67064;SHT30;58476;48.072;11.970;2023-08-30T13:13:52;25.04;52.24
67064;SHT30;58476;48.072;11.970;2023-08-30T13:16:17;25.03;52.11
67064;SHT30;58476;48.072;11.970;2023-08-30T13:18:42;25.06;52.10
67064;SHT30;58476;48.072;11.970;2023-08-30T13:21:07;25.04;52.16
67064;SHT30;58476;48.072;11.970;2023-08-30T13:23:33;25.09;52.15
67064;SHT30;58476;48.072;11.970;2023-08-30T13:25:58;25.07;52.21
67064;SHT30;58476;48.072;11.970;2023-08-30T13:28:23;25.10;52.02
67064;SHT30;58476;48.072;11.970;2023-08-30T13:30:49;25.12;52.93
67064;SHT30;58476;48.072;11.970;2023-08-30T13:33:14;25.12;52.36
67064;SHT30;58476;48.072;11.970;2023-08-30T13:35:40;25.13;52.53
67064;SHT30;58476;48.072;11.970;2023-08-30T13:38:05;25.12;52.70
67064;SHT30;58476;48.072;11.970;2023-08-30T13:40:30;25.10;52.55
67064;SHT30;58476;48.072;11.970;2023-08-30T13:42:56;25.10;52.81
67064;SHT30;58476;48.072;11.970;2023-08-30T13:45:21;25.10;53.15
67064;SHT30;58476;48.072;11.970;2023-08-30T13:47:46;25.14;52.85
67064;SHT30;58476;48.072;11.970;2023-08-30T13:50:12;25.14;53.30
67064;SHT30;58476;48.072;11.970;2023-08-30T13:52:37;25.14;53.30
67064;SHT30;58476;48.072;11.970;2023-08-30T13:55:03;25.17;53.34
67064;SHT30;58476;48.072;11.970;2023-08-30T13:57:28;25.19;53.22
67064;SHT30;58476;48.072;11.970;2023-08-30T13:59:54;25.20;53.10
67064;SHT30;58476;48.072;11.970;2023-08-30T14:02:19;25.22;52.86
67064;SHT30;58476;48.072;11.970;2023-08-30T14:04:44;25.20;52.87
67064;SHT30;58476;48.072;11.970;2023-08-30T14:07:10;25.17;52.80
67064;SHT30;58476;48.072;11.970;2023-08-30T14:09:35;25.19;52.95
67064;SHT30;58476;48.072;11.970;2023-08-30T14:12:01;25.17;52.92
67064;SHT30;58476;48.072;11.970;2023-08-30T14:14:27;25.13;52.90
67064;SHT30;58476;48.072;11.970;2023-08-30T14:16:52;25.14;53.01
67064;SHT30;58476;48.072;11.970;2023-08-30T14:19:17;25.13;52.94
67064;SHT30;58476;48.072;11.970;2023-08-30T14:21:43;25.14;52.64
67064;SHT30;58476;48.072;11.970;2023-08-30T14:24:08;25.14;52.43
67064;SHT30;58476;48.072;11.970;2023-08-30T14:26:33;25.10;52.85
67064;SHT30;58476;48.072;11.970;2023-08-30T14:28:59;25.04;52.93
67064;SHT30;58476;48.072;11.970;2023-08-30T14:31:24;25.04;52.94
67064;SHT30;58476;48.072;11.970;2023-08-30T14:33:49;25.06;53.06
67064;SHT30;58476;48.072;11.970;2023-08-30T14:36:15;25.04;53.18
67064;SHT30;58476;48.072;11.970;2023-08-30T14:38:40;25.03;52.84
67064;SHT30;58476;48.072;11.970;2023-08-30T14:41:05;25.03;52.97
67064;SHT30;58476;48.072;11.970;2023-08-30T14:43:31;25.02;52.80
67064;SHT30;58476;48.072;11.970;2023-08-30T14:46:04;25.03;52.86
67064;SHT30;58476;48.072;11.970;2023-08-30T14:48:31;25.03;52.79
67064;SHT30;58476;48.072;11.970;2023-08-30T14:50:57;25.02;52.84
67064;SHT30;58476;48.072;11.970;2023-08-30T14:53:23;25.03;52.87
67064;SHT30;58476;48.072;11.970;2023-08-30T14:55:48;25.00;52.94
67064;SHT30;58476;48.072;11.970;2023-08-30T14:58:13;25.00;52.92
67064;SHT30;58476;48.072;11.970;2023-08-30T15:00:42;25.00;53.08
67064;SHT30;58476;48.072;11.970;2023-08-30T15:03:07;25.02;53.07
67064;SHT30;58476;48.072;11.970;2023-08-30T15:05:33;25.02;53.06
67064;SHT30;58476;48.072;11.970;2023-08-30T15:07:58;25.00;53.03
67064;SHT30;58476;48.072;11.970;2023-08-30T15:10:24;25.03;53.13
67064;SHT30;58476;48.072;11.970;2023-08-30T15:12:50;25.02;53.05